Terminal Aerodrome Forecast
Issued by NWS

Home | Current Version | Previous Version | Text Only | Print | Product List | Glossary On
Versions: 1 2 3 4 5 6 7 8 9 10 11 12 13 14 15 16 17 18 19 20
000
FTUS43 KGRB 161200 AAA
TAFATW
TAF AMD
KATW 161257Z 1613/1712 15009KT 2SM -SN BKN025 OVC040
      TEMPO 1613/1614 5SM -SN SCT025 OVC040
     FM161400 14013G21KT 6SM -SN SCT020 OVC040
      TEMPO 1616/1620 3SM -SN BKN020
     FM162000 13016G25KT P6SM SCT040 BKN080 WS015/15040KT
     FM170400 14015G24KT P6SM -RASN SCT025 OVC050 WS012/15040KT
     FM170800 11013G21KT 4SM -RASN BR BKN020 OVC035 WS012/15040KT
      TEMPO 1710/1712 2SM -SN OVC015=

USA.gov is the U.S. government's official web portal to all federal, state and local government web resources and services.